Time;durP1;ratioP1;P1;durP2;ratioP2;P2;SDS_P1;SDS_P2;PMS_P1;PMS_P2;Temp;Humidity;BMP_temperature;BMP_pressure;BME280_temperature;BME280_humidity;BME280_pressure;Samples;Min_cycle;Max_cycle;Signal;HPM_P1;HPM_P2
2021/07/20 00:02:39;;;;;;;14.10;11.25;;;563.50;2432.00;;;;;;5028701;28;20045;-76
2021/07/20 00:05:07;;;;;;;19.48;12.32;;;563.50;2432.00;;;;;;4963324;28;20125;-76
2021/07/20 00:07:35;;;;;;;15.20;11.10;;;563.50;2432.00;;;;;;4962517;28;20078;-76
2021/07/20 00:10:46;;;;;;;13.00;10.63;;;563.50;2432.00;;;;;;4965707;28;20074;-77
2021/07/20 00:13:16;;;;;;;12.27;11.00;;;563.50;2432.00;;;;;;4965888;28;20034;-77
2021/07/20 00:15:45;;;;;;;13.13;10.63;;;563.50;2432.00;;;;;;4966970;28;20031;-77
2021/07/20 00:18:25;;;;;;;13.23;11.82;;;563.50;2432.00;;;;;;4954537;28;20123;-77
2021/07/20 00:21:04;;;;;;;16.63;11.18;;;563.50;2432.00;;;;;;4967088;28;20042;-77
2021/07/20 00:23:34;;;;;;;12.60;11.25;;;563.30;2432.00;;;;;;4965545;28;20101;-78
2021/07/20 00:26:15;;;;;;;11.32;10.00;;;563.50;2432.00;;;;;;4965803;28;20046;-77
2021/07/20 00:28:47;;;;;;;11.43;10.18;;;563.50;2432.00;;;;;;4968295;28;20048;-77
2021/07/20 00:31:16;;;;;;;11.85;10.57;;;563.50;2432.00;;;;;;4952319;28;20039;-76
2021/07/20 00:33:44;;;;;;;13.75;9.85;;;563.50;2432.00;;;;;;4965311;28;20037;-77
2021/07/20 00:36:10;;;;;;;13.63;11.05;;;563.50;2432.00;;;;;;4960457;28;20041;-76
2021/07/20 00:38:36;;;;;;;12.00;10.60;;;563.60;2432.00;;;;;;4984889;28;20063;-77
2021/07/20 00:41:02;;;;;;;13.52;11.05;;;563.60;2432.00;;;;;;5003782;28;20037;-77
2021/07/20 00:43:27;;;;;;;11.50;10.27;;;563.70;2432.00;;;;;;5008747;28;20022;-77
2021/07/20 00:45:59;;;;;;;11.10;9.15;;;563.70;2432.00;;;;;;5004273;28;20022;-77
2021/07/20 00:48:43;;;;;;;12.10;10.60;;;563.70;2432.00;;;;;;5030107;28;20063;-76
2021/07/20 00:51:14;;;;;;;11.40;10.13;;;563.70;2432.00;;;;;;5010184;28;20025;-77
2021/07/20 00:53:59;;;;;;;13.90;10.93;;;563.70;2432.00;;;;;;5004355;28;20099;-77
2021/07/20 00:56:51;;;;;;;12.70;10.75;;;563.60;2432.00;;;;;;5014810;28;20057;-77
2021/07/20 00:59:20;;;;;;;14.45;11.77;;;563.70;2432.00;;;;;;5017743;28;20033;-77
2021/07/20 01:02:09;;;;;;;12.85;11.30;;;563.60;2432.00;;;;;;5010740;28;20052;-78
2021/07/20 01:04:38;;;;;;;12.90;10.35;;;563.60;2432.00;;;;;;5010316;28;20084;-78
2021/07/20 01:07:09;;;;;;;11.98;10.35;;;563.70;2432.00;;;;;;4989081;28;20029;-78
2021/07/20 01:09:40;;;;;;;12.57;10.07;;;563.70;2432.00;;;;;;5013237;28;20037;-77
2021/07/20 01:12:09;;;;;;;12.10;10.38;;;563.70;2432.00;;;;;;5022756;28;20025;-78
2021/07/20 01:14:38;;;;;;;14.23;12.13;;;563.70;2432.00;;;;;;4999888;28;20037;-78
2021/07/20 01:17:11;;;;;;;14.95;11.90;;;563.70;2432.00;;;;;;5013098;28;20097;-77
2021/07/20 01:19:49;;;;;;;14.85;10.75;;;563.70;2432.00;;;;;;5026963;28;20061;-77
2021/07/20 01:22:28;;;;;;;13.38;10.95;;;563.70;2432.00;;;;;;5029261;28;20101;-78
2021/07/20 01:25:11;;;;;;;17.70;13.20;;;563.70;2432.00;;;;;;5025690;28;20042;-78
2021/07/20 01:27:50;;;;;;;14.95;10.80;;;563.70;2432.00;;;;;;4997917;28;20026;-77
2021/07/20 01:30:20;;;;;;;14.93;11.93;;;563.70;2432.00;;;;;;5005236;28;20082;-77
2021/07/20 01:32:51;;;;;;;17.25;12.43;;;563.80;2432.00;;;;;;5028603;28;20112;-76
2021/07/20 01:35:21;;;;;;;17.25;12.25;;;563.80;2432.00;;;;;;5016257;28;20022;-77
2021/07/20 01:38:09;;;;;;;15.15;12.23;;;563.80;2432.00;;;;;;5021505;28;20053;-77
2021/07/20 01:40:42;;;;;;;14.70;11.63;;;563.90;2432.00;;;;;;5045912;28;20025;-77
2021/07/20 01:43:15;;;;;;;19.58;13.55;;;563.90;2432.00;;;;;;5043489;28;20033;-76
2021/07/20 01:45:42;;;;;;;17.63;12.35;;;563.90;2432.00;;;;;;5045098;28;20068;-75
2021/07/20 01:48:12;;;;;;;18.65;15.40;;;563.90;2432.00;;;;;;5039839;28;20041;-75
2021/07/20 01:50:44;;;;;;;17.92;13.68;;;563.90;2432.00;;;;;;5049165;28;20488;-76
2021/07/20 01:53:20;;;;;;;18.67;15.02;;;564.00;2432.00;;;;;;5050808;28;20036;-76
2021/07/20 01:55:46;;;;;;;22.08;14.88;;;564.00;2432.00;;;;;;5051002;28;20017;-76
2021/07/20 01:58:14;;;;;;;17.52;14.18;;;564.00;2432.00;;;;;;5048725;28;20029;-76
2021/07/20 02:00:42;;;;;;;20.38;15.18;;;564.00;2432.00;;;;;;5031323;28;20104;-75
2021/07/20 02:12:17;;;;;;;20.85;16.15;;;564.00;2432.00;;;;;;5034629;28;20075;-75
2021/07/20 02:14:47;;;;;;;18.83;14.63;;;564.00;2432.00;;;;;;5036331;28;20143;-76
2021/07/20 02:17:14;;;;;;;18.80;14.52;;;564.00;2432.00;;;;;;5046435;28;20104;-75
2021/07/20 02:20:04;;;;;;;17.77;15.07;;;564.10;2432.00;;;;;;5034089;28;20111;-75
2021/07/20 02:22:43;;;;;;;18.90;14.82;;;564.10;2432.00;;;;;;5034670;28;20056;-75
2021/07/20 02:25:16;;;;;;;20.42;15.82;;;564.10;2432.00;;;;;;5033126;28;20030;-75
2021/07/20 02:27:42;;;;;;;22.95;15.45;;;564.10;2432.00;;;;;;5048750;28;20021;-75
2021/07/20 02:30:15;;;;;;;17.10;14.25;;;564.10;2432.00;;;;;;5054622;28;20029;-75
2021/07/20 02:32:54;;;;;;;23.15;16.95;;;564.10;2432.00;;;;;;5054743;28;20357;-75
2021/07/20 02:35:27;;;;;;;22.85;16.30;;;564.10;2432.00;;;;;;5052976;28;20032;-75
2021/07/20 02:38:06;;;;;;;20.67;17.40;;;564.10;2432.00;;;;;;5053745;28;20493;-75
2021/07/20 02:40:35;;;;;;;22.27;17.35;;;564.10;2432.00;;;;;;5051417;28;20025;-75
2021/07/20 02:43:04;;;;;;;23.33;18.25;;;564.00;2432.00;;;;;;5036172;28;20029;-75
2021/07/20 02:45:38;;;;;;;22.55;17.90;;;564.10;2432.00;;;;;;5029746;28;20021;-75
2021/07/20 02:48:05;;;;;;;23.95;18.45;;;564.10;2432.00;;;;;;5024256;28;20021;-75
2021/07/20 02:50:40;;;;;;;26.55;18.75;;;564.10;2432.00;;;;;;5047496;28;20392;-75
2021/07/20 02:53:17;;;;;;;25.07;20.97;;;564.00;2432.00;;;;;;5027160;28;20060;-75
2021/07/20 02:56:05;;;;;;;27.40;19.85;;;564.10;2432.00;;;;;;5035878;28;20258;-75
2021/07/20 02:58:38;;;;;;;21.23;17.67;;;564.10;2432.00;;;;;;5036227;28;20101;-76
2021/07/20 03:01:08;;;;;;;21.58;17.33;;;564.00;2432.00;;;;;;5048871;28;20095;-75
2021/07/20 03:03:37;;;;;;;21.77;17.85;;;564.00;2432.00;;;;;;5033833;28;20022;-78
2021/07/20 03:09:39;;;;;;;20.27;17.63;;;564.00;2432.00;;;;;;5047015;28;20040;-75
2021/07/20 03:12:20;;;;;;;24.08;17.38;;;563.90;2432.00;;;;;;5026571;28;20030;-75
2021/07/20 03:15:08;;;;;;;23.25;17.50;;;563.90;2432.00;;;;;;5016102;28;20037;-76
2021/07/20 03:17:37;;;;;;;25.13;17.85;;;563.90;2432.00;;;;;;5045512;28;20033;-76
2021/07/20 03:20:11;;;;;;;21.75;16.75;;;563.90;2432.00;;;;;;5053490;28;20025;-76
2021/07/20 03:22:41;;;;;;;22.45;16.83;;;563.80;2432.00;;;;;;5051138;28;20387;-76
2021/07/20 03:25:21;;;;;;;20.42;16.50;;;563.80;2432.00;;;;;;5031817;28;20116;-77
2021/07/20 03:28:09;;;;;;;20.55;16.90;;;563.80;2432.00;;;;;;5035157;28;20047;-77
2021/07/20 03:30:42;;;;;;;23.65;16.95;;;563.80;2432.00;;;;;;5033324;28;20068;-76
2021/07/20 03:33:31;;;;;;;21.00;16.70;;;563.70;2432.00;;;;;;5027013;28;20043;-76
2021/07/20 03:36:00;;;;;;;23.63;16.75;;;563.70;2432.00;;;;;;5032483;28;20423;-76
2021/07/20 03:38:51;;;;;;;23.83;18.17;;;563.70;2432.00;;;;;;5043815;28;20076;-75
2021/07/20 03:41:21;;;;;;;20.67;17.63;;;563.70;2432.00;;;;;;5044258;28;20488;-75
2021/07/20 03:43:50;;;;;;;24.88;18.70;;;563.70;2432.00;;;;;;5040604;28;20025;-76
2021/07/20 03:46:16;;;;;;;20.67;16.77;;;563.60;2432.00;;;;;;5044349;28;20407;-75
2021/07/20 03:48:43;;;;;;;23.90;19.00;;;563.70;2432.00;;;;;;5036821;28;20033;-75
2021/07/20 03:51:22;;;;;;;21.55;17.23;;;563.70;2432.00;;;;;;5052575;28;20029;-75
2021/07/20 03:54:13;;;;;;;23.15;18.27;;;563.70;2432.00;;;;;;5050229;28;20029;-75
2021/07/20 03:56:43;;;;;;;25.02;18.60;;;563.70;2432.00;;;;;;5042194;28;20056;-75
2021/07/20 03:59:16;;;;;;;23.05;17.63;;;563.70;2432.00;;;;;;5034229;28;20056;-76
2021/07/20 04:01:45;;;;;;;23.63;18.33;;;563.70;2432.00;;;;;;5048626;28;20021;-76
2021/07/20 04:04:32;;;;;;;23.63;17.42;;;563.70;2432.00;;;;;;5050777;28;20928;-74
2021/07/20 04:07:26;;;;;;;25.00;17.23;;;563.80;2432.00;;;;;;5046556;28;20079;-76
2021/07/20 04:12:46;;;;;;;21.23;16.77;;;563.90;2432.00;;;;;;5041194;28;20040;-75
2021/07/20 04:15:18;;;;;;;24.35;18.92;;;564.00;2432.00;;;;;;5041707;28;20048;-75
2021/07/20 04:17:44;;;;;;;20.02;16.15;;;564.00;2432.00;;;;;;5047701;28;20088;-75
2021/07/20 04:23:04;;;;;;;26.75;17.63;;;564.00;2432.00;;;;;;5046958;28;20064;-74
2021/07/20 04:25:37;;;;;;;23.10;17.77;;;563.90;2432.00;;;;;;5046314;28;20120;-75
2021/07/20 04:28:26;;;;;;;22.48;17.08;;;563.90;2432.00;;;;;;5041152;28;20095;-75
2021/07/20 04:31:35;;;;;;;22.25;18.40;;;563.90;2432.00;;;;;;5040577;28;20037;-74
2021/07/20 04:34:29;;;;;;;21.95;16.67;;;563.80;2432.00;;;;;;5039487;28;20361;-75
2021/07/20 04:37:16;;;;;;;20.52;16.85;;;563.70;2432.00;;;;;;5050348;28;20426;-75
2021/07/20 04:39:57;;;;;;;18.27;16.33;;;563.80;2432.00;;;;;;5047897;28;20128;-75
2021/07/20 04:42:39;;;;;;;23.60;18.15;;;563.90;2432.00;;;;;;5045505;28;20028;-75
2021/07/20 04:45:28;;;;;;;20.50;17.13;;;564.00;2432.00;;;;;;5049463;28;20490;-75
2021/07/20 04:47:56;;;;;;;21.67;17.17;;;564.00;2432.00;;;;;;5047993;28;20036;-75
2021/07/20 04:50:27;;;;;;;20.17;17.63;;;564.00;2432.00;;;;;;5049757;28;20076;-76
2021/07/20 04:52:58;;;;;;;21.98;18.70;;;564.00;2432.00;;;;;;5051631;28;20388;-76
2021/07/20 04:55:38;;;;;;;22.90;17.33;;;564.00;2432.00;;;;;;5051524;28;20025;-77
2021/07/20 04:58:19;;;;;;;21.58;17.70;;;564.00;2432.00;;;;;;5051485;28;20029;-76
2021/07/20 05:01:20;;;;;;;21.77;18.33;;;564.00;2432.00;;;;;;5051765;28;20021;-76
2021/07/20 05:03:46;;;;;;;20.17;16.75;;;564.00;2432.00;;;;;;5050656;28;20107;-77
2021/07/20 05:09:20;;;;;;;19.20;17.20;;;564.10;2432.00;;;;;;5035603;28;20062;-76
2021/07/20 05:12:05;;;;;;;24.13;16.15;;;564.10;2432.00;;;;;;5030790;28;20033;-76
2021/07/20 05:14:45;;;;;;;20.73;17.05;;;564.10;2432.00;;;;;;5029354;28;20028;-76
2021/07/20 05:17:30;;;;;;;20.95;16.75;;;588.80;2432.00;;;;;;5043476;28;20051;-76
2021/07/20 05:20:17;;;;;;;17.50;15.27;;;588.80;2432.00;;;;;;5041464;28;20028;-76
2021/07/20 05:22:46;;;;;;;22.42;17.33;;;588.90;2432.00;;;;;;5037767;28;20601;-76
2021/07/20 05:25:39;;;;;;;18.67;16.77;;;588.90;2432.00;;;;;;5051315;28;20434;-76
2021/07/20 05:28:12;;;;;;;18.65;16.73;;;589.00;2432.00;;;;;;5034729;28;20017;-76
2021/07/20 05:30:51;;;;;;;18.80;15.98;;;589.10;2432.00;;;;;;5050610;28;20035;-75
2021/07/20 05:33:33;;;;;;;18.65;16.65;;;589.20;2432.00;;;;;;5042732;28;20364;-76
2021/07/20 05:36:19;;;;;;;20.05;17.40;;;589.10;2432.00;;;;;;5049838;28;20036;-77
2021/07/20 05:38:48;;;;;;;20.98;18.05;;;589.30;2432.00;;;;;;5050978;28;20537;-76
2021/07/20 05:41:17;;;;;;;24.17;18.08;;;589.20;2432.00;;;;;;5050466;28;20047;-77
2021/07/20 05:44:02;;;;;;;23.17;19.15;;;589.60;2432.00;;;;;;5043117;28;20053;-77
2021/07/20 05:46:50;;;;;;;24.70;18.20;;;589.60;2432.00;;;;;;5049144;28;20027;-77
2021/07/20 05:52:31;;;;;;;19.20;17.05;;;614.60;2432.00;;;;;;5035337;28;20155;-77
2021/07/20 05:55:14;;;;;;;18.73;16.73;;;614.90;2432.00;;;;;;5016713;28;20026;-77
2021/07/20 06:03:32;;;;;;;20.70;16.13;;;640.20;2432.00;;;;;;5048366;28;20031;-77
2021/07/20 06:06:02;;;;;;;19.45;15.82;;;640.30;2432.00;;;;;;5034597;28;20036;-77
2021/07/20 06:08:34;;;;;;;20.60;16.35;;;640.30;2432.00;;;;;;5042039;28;20022;-77
2021/07/20 06:11:15;;;;;;;19.63;16.27;;;640.20;2432.00;;;;;;5050123;28;20116;-77
2021/07/20 06:13:53;;;;;;;17.55;15.23;;;640.20;2432.00;;;;;;5033349;28;20122;-77
2021/07/20 06:16:42;;;;;;;21.77;17.50;;;640.30;2432.00;;;;;;5048829;28;20026;-77
2021/07/20 06:25:16;;;;;;;15.38;13.27;;;640.80;2432.00;;;;;;5036909;28;20045;-77
2021/07/20 06:33:35;;;;;;;;;;;640.80;2432.00;;;;;;5039306;28;20490;-75
2021/07/20 06:36:26;;;;;;;15.05;13.45;;;640.70;2432.00;;;;;;5034182;28;19916;-74
2021/07/20 06:39:16;;;;;;;17.52;13.23;;;640.40;2432.00;;;;;;5031881;28;20056;-75
2021/07/20 06:41:56;;;;;;;18.05;12.63;;;640.40;2432.00;;;;;;5048589;28;20021;-76
2021/07/20 06:47:16;;;;;;;14.38;11.77;;;640.60;2432.00;;;;;;5047237;28;20505;-74
2021/07/20 06:50:00;;;;;;;14.45;11.82;;;640.80;2432.00;;;;;;5043819;28;20025;-75
2021/07/20 06:52:26;;;;;;;19.30;12.68;;;640.90;2432.00;;;;;;5048740;28;20112;-74
2021/07/20 06:54:55;;;;;;;15.45;11.70;;;640.80;2432.00;;;;;;5050472;28;20108;-75
2021/07/20 06:57:34;;;;;;;14.50;12.68;;;640.80;2432.00;;;;;;5046956;28;20025;-74
2021/07/20 07:00:16;;;;;;;17.38;12.68;;;640.80;2432.00;;;;;;5040565;28;20029;-75
2021/07/20 07:03:09;;;;;;;15.18;12.05;;;640.90;2432.00;;;;;;5042104;28;20025;-75
2021/07/20 07:09:04;;;;;;;16.23;11.45;;;665.80;2432.00;;;;;;5044960;28;20032;-75
2021/07/20 07:15:08;;;;;;;12.82;11.30;;;666.10;2432.00;;;;;;5048415;28;20391;-75
2021/07/20 07:17:53;;;;;;;13.98;10.23;;;666.10;2432.00;;;;;;5035499;28;20116;-75
2021/07/20 07:20:42;;;;;;;14.68;11.77;;;666.10;2432.00;;;;;;5048933;28;20029;-75
2021/07/20 07:23:09;;;;;;;15.55;10.98;;;666.20;2432.00;;;;;;5051933;28;20021;-75
2021/07/20 07:34:37;;;;;;;14.93;10.55;;;666.10;2432.00;;;;;;5046000;28;20031;-75
2021/07/20 07:40:20;;;;;;;14.00;9.35;;;665.70;2432.00;;;;;;5024878;28;20091;-75
2021/07/20 07:43:09;;;;;;;13.23;9.25;;;640.70;2432.00;;;;;;5026417;28;20013;-75
2021/07/20 07:45:42;;;;;;;12.30;9.43;;;640.60;2432.00;;;;;;5007628;28;20113;-75
2021/07/20 07:48:36;;;;;;;19.30;9.45;;;640.60;2432.00;;;;;;5022301;28;20025;-76
2021/07/20 07:51:19;;;;;;;11.18;9.88;;;640.80;2432.00;;;;;;5010484;28;20056;-75
2021/07/20 07:56:54;;;;;;;14.63;9.75;;;666.10;2432.00;;;;;;5022501;28;20114;-75
2021/07/20 07:59:43;;;;;;;12.48;8.57;;;666.30;2432.00;;;;;;5011325;28;20025;-75
2021/07/20 08:02:34;;;;;;;11.05;8.35;;;666.50;2432.00;;;;;;5006937;28;20022;-75
2021/07/20 08:08:13;;;;;;;13.13;10.30;;;691.70;2432.00;;;;;;5026071;28;20076;-76
2021/07/20 08:11:01;;;;;;;14.88;9.18;;;692.00;2432.00;;;;;;5001012;28;20079;-73
2021/07/20 08:13:44;;;;;;;17.50;9.18;;;716.80;2432.00;;;;;;5008217;28;20040;-75
2021/07/20 08:16:44;;;;;;;11.93;8.15;;;717.10;2432.00;;;;;;5005734;28;20029;-75
2021/07/20 08:19:44;;;;;;;17.67;8.80;;;717.40;2432.00;;;;;;5032619;28;20113;-75
2021/07/20 08:22:15;;;;;;;14.77;8.05;;;717.50;2432.00;;;;;;5006382;28;20025;-75
2021/07/20 08:25:33;;;;;;;14.63;9.15;;;717.60;2432.00;;;;;;5031610;28;20479;-75
2021/07/20 08:28:07;;;;;;;12.73;8.30;;;717.50;2432.00;;;;;;4951814;29;20158;-75
2021/07/20 08:34:15;;;;;;;15.05;9.90;;;717.60;2432.00;;;;;;4952176;29;20131;-76
2021/07/20 08:36:45;;;;;;;12.60;9.00;;;742.40;2432.00;;;;;;4951711;29;20043;-75
2021/07/20 08:39:14;;;;;;;11.98;9.55;;;742.40;2432.00;;;;;;4932416;29;20055;-75
2021/07/20 08:42:16;;;;;;;26.67;9.75;;;717.50;2432.00;;;;;;4950886;29;20046;-76
2021/07/20 08:45:22;;;;;;;14.98;9.52;;;717.20;2432.00;;;;;;4951651;29;20031;-75
2021/07/20 08:48:43;;;;;;;18.52;9.43;;;717.40;2432.00;;;;;;4935456;28;20499;-75
2021/07/20 08:51:52;;;;;;;12.73;8.25;;;742.50;2432.00;;;;;;4940527;29;20046;-75
2021/07/20 08:54:45;;;;;;;13.75;8.32;;;742.50;2432.00;;;;;;4950980;29;20121;-75
2021/07/20 08:57:52;;;;;;;11.50;9.35;;;742.70;2432.00;;;;;;4945735;29;20043;-75
2021/07/20 09:00:38;;;;;;;12.75;10.52;;;742.80;2432.00;;;;;;4942767;29;20438;-75
2021/07/20 09:03:47;;;;;;;9.52;7.78;;;742.90;2432.00;;;;;;5025640;28;20033;-76
2021/07/20 09:06:27;;;;;;;15.00;8.40;;;742.80;2432.00;;;;;;5024621;28;20017;-75
2021/07/20 09:09:18;;;;;;;10.90;9.02;;;742.70;2432.00;;;;;;5047964;28;20009;-76
2021/07/20 09:12:06;;;;;;;15.02;9.70;;;742.70;2432.00;;;;;;5051361;28;20380;-75
2021/07/20 09:14:56;;;;;;;14.40;10.07;;;743.10;2432.00;;;;;;5023689;28;20037;-76
2021/07/20 09:17:49;;;;;;;11.88;7.35;;;743.10;2432.00;;;;;;5051361;28;20099;-75
2021/07/20 09:20:47;;;;;;;11.88;8.25;;;743.10;2432.00;;;;;;5028097;28;20037;-75
2021/07/20 09:23:53;;;;;;;11.75;7.88;;;742.60;2432.00;;;;;;5032872;28;20029;-76
2021/07/20 09:26:24;;;;;;;12.60;8.48;;;717.70;2432.00;;;;;;5027416;28;20484;-75
2021/07/20 09:32:19;;;;;;;10.70;8.02;;;717.10;2432.00;;;;;;5044527;28;20047;-76
2021/07/20 09:34:59;;;;;;;14.50;8.38;;;742.50;2432.00;;;;;;5048861;28;20055;-75
2021/07/20 09:38:09;;;;;;;11.70;8.07;;;768.00;2432.00;;;;;;5022611;28;20075;-76
2021/07/20 09:41:33;;;;;;;14.07;9.23;;;743.30;2432.00;;;;;;5013429;28;20067;-75
2021/07/20 09:44:36;;;;;;;13.10;9.25;;;742.70;2432.00;;;;;;5003452;28;20110;-76
2021/07/20 09:47:32;;;;;;;10.90;7.47;;;742.60;2432.00;;;;;;5007876;28;20052;-76
2021/07/20 09:50:50;;;;;;;12.18;9.13;;;768.00;2432.00;;;;;;5023544;28;20027;-75
2021/07/20 09:53:34;;;;;;;;;;;768.20;2432.00;;;;;;5012195;28;20103;-76
2021/07/20 09:56:45;;;;;;;16.15;9.52;;;768.20;2432.00;;;;;;4993719;28;19938;-76
2021/07/20 10:03:25;;;;;;;13.60;9.77;;;768.30;2432.00;;;;;;4989446;28;20049;-76
2021/07/20 10:05:59;;;;;;;13.07;8.35;;;768.20;2432.00;;;;;;4956524;28;20122;-75
2021/07/20 10:11:45;;;;;;;13.60;10.25;;;768.40;2432.00;;;;;;4969547;28;20421;-75
2021/07/20 10:14:41;;;;;;;11.63;8.43;;;768.70;2432.00;;;;;;4969235;28;20078;-75
2021/07/20 10:20:56;;;;;;;17.48;10.27;;;819.40;2432.00;;;;;;4967403;28;20073;-76
2021/07/20 10:24:14;;;;;;;12.02;8.55;;;819.70;2432.00;;;;;;4942814;28;20418;-76
2021/07/20 10:27:26;;;;;;;13.40;8.45;;;794.00;2432.00;;;;;;4968762;28;20465;-76
2021/07/20 10:30:04;;;;;;;9.45;8.07;;;794.00;2432.00;;;;;;4964832;28;20043;-76
2021/07/20 10:36:04;;;;;;;14.27;10.85;;;794.40;2432.00;;;;;;4997980;28;20388;-76
2021/07/20 10:41:55;;;;;;;13.80;8.85;;;768.50;2432.00;;;;;;5041649;28;20098;-76
2021/07/20 10:44:59;;;;;;;11.40;9.00;;;793.60;2432.00;;;;;;5045302;28;20025;-76
2021/07/20 10:48:18;;;;;;;13.45;9.18;;;793.90;2432.00;;;;;;5044282;28;20056;-77
2021/07/20 10:51:08;;;;;;;15.07;9.30;;;794.00;2432.00;;;;;;5006503;28;20038;-76
2021/07/20 10:53:57;;;;;;;14.55;8.73;;;794.10;2432.00;;;;;;4989690;28;20041;-76
2021/07/20 11:06:28;;;;;;;13.50;8.68;;;819.80;2380.80;;;;;;5011674;28;20144;-75
2021/07/20 11:09:04;;;;;;;12.27;8.82;;;819.80;2406.40;;;;;;5010613;28;20030;-76
2021/07/20 11:11:56;;;;;;;14.68;9.57;;;819.40;2406.40;;;;;;5009632;28;20044;-75
2021/07/20 11:14:48;;;;;;;14.25;9.10;;;819.30;2432.00;;;;;;5009112;28;20079;-77
2021/07/20 11:17:18;;;;;;;12.20;10.05;;;793.60;2432.00;;;;;;4994035;28;20042;-75
2021/07/20 11:20:21;;;;;;;14.73;9.82;;;794.10;2432.00;;;;;;5010561;28;20038;-77
2021/07/20 11:29:00;;;;;;;15.07;11.70;;;819.60;2329.60;;;;;;5044272;28;20044;-77
2021/07/20 11:32:02;;;;;;;14.45;10.43;;;844.90;2252.80;;;;;;5045306;28;20029;-77
2021/07/20 11:35:08;;;;;;;13.85;9.93;;;845.70;2201.60;;;;;;5051029;28;20021;-76
2021/07/20 11:41:00;;;;;;;12.18;9.98;;;870.90;2150.40;;;;;;5024593;28;20041;-78
2021/07/20 11:43:50;;;;;;;14.27;10.13;;;870.60;2099.20;;;;;;5023714;28;20029;-77
2021/07/20 11:49:53;;;;;;;19.08;10.63;;;871.10;2048.00;;;;;;5018560;28;20033;-78
2021/07/20 11:53:06;;;;;;;14.48;9.40;;;871.30;1971.20;;;;;;5023453;28;20029;-78
2021/07/20 11:56:12;;;;;;;11.75;9.65;;;870.90;1971.20;;;;;;5023918;28;20042;-77
2021/07/20 11:59:22;;;;;;;11.85;9.38;;;896.00;1945.60;;;;;;5020789;28;20022;-78
2021/07/20 12:02:46;;;;;;;15.52;10.30;;;870.90;1894.40;;;;;;5024353;28;20057;-78
2021/07/20 12:05:50;;;;;;;13.45;9.52;;;870.70;1843.20;;;;;;4944627;29;20055;-78
2021/07/20 12:08:42;;;;;;;12.68;8.98;;;870.90;1843.20;;;;;;4943392;29;20030;-78
2021/07/20 12:14:16;;;;;;;16.83;10.00;;;896.00;1843.20;;;;;;4945644;29;20086;-77
2021/07/20 12:17:02;;;;;;;13.93;9.80;;;871.10;1868.80;;;;;;4943151;29;20122;-78
2021/07/20 12:19:45;;;;;;;11.45;10.00;;;871.30;1894.40;;;;;;4945810;29;20043;-76
2021/07/20 12:22:11;;;;;;;15.63;9.73;;;896.00;1843.20;;;;;;4942049;29;20035;-77
2021/07/20 12:24:54;;;;;;;13.95;11.00;;;896.50;1817.60;;;;;;4942168;29;20036;-78
2021/07/20 12:27:25;;;;;;;19.63;11.60;;;896.40;1792.00;;;;;;4945374;29;20031;-78
2021/07/20 12:29:53;;;;;;;14.15;9.88;;;896.20;1766.40;;;;;;4946148;29;20036;-77
2021/07/20 12:32:42;;;;;;;18.35;10.48;;;896.10;1766.40;;;;;;4942567;29;20132;-77
2021/07/20 12:35:37;;;;;;;14.65;10.70;;;871.10;1843.20;;;;;;4929160;29;20518;-77
2021/07/20 12:38:26;;;;;;;12.95;10.38;;;870.90;1817.60;;;;;;4960077;28;20120;-77
2021/07/20 12:41:14;;;;;;;15.25;9.60;;;845.10;1920.00;;;;;;5023371;28;20554;-77
2021/07/20 12:43:46;;;;;;;15.05;10.05;;;844.80;1920.00;;;;;;5041205;28;20029;-76
2021/07/20 12:46:36;;;;;;;14.80;10.68;;;844.80;1920.00;;;;;;5023825;28;20032;-76
2021/07/20 12:49:06;;;;;;;12.38;10.85;;;845.60;1868.80;;;;;;5022566;28;20048;-77
2021/07/20 12:52:06;;;;;;;16.00;11.65;;;845.50;1894.40;;;;;;5042577;28;20044;-77
2021/07/20 12:54:43;;;;;;;13.82;10.40;;;845.70;1894.40;;;;;;5037632;28;20022;-78
2021/07/20 12:57:19;;;;;;;15.77;12.02;;;845.50;1894.40;;;;;;5028455;28;20102;-77
2021/07/20 12:59:54;;;;;;;15.55;11.80;;;870.90;1868.80;;;;;;5041470;28;20025;-77
2021/07/20 13:03:01;;;;;;;16.23;11.52;;;870.40;1920.00;;;;;;5044737;28;20024;-77
2021/07/20 13:05:41;;;;;;;15.90;10.82;;;845.00;1945.60;;;;;;5044390;28;20027;-77
2021/07/20 13:08:38;;;;;;;16.67;12.32;;;844.80;1996.80;;;;;;5045233;28;20373;-77
2021/07/20 13:11:03;;;;;;;;;;;820.00;1971.20;;;;;;5023977;28;20025;-77
2021/07/20 13:13:48;;;;;;;;;;;845.20;1971.20;;;;;;5043967;28;19996;-77
2021/07/20 13:16:39;;;;;;;21.48;11.85;;;870.80;1868.80;;;;;;5029340;28;19927;-79
2021/07/20 13:19:18;;;;;;;16.73;10.88;;;871.30;1817.60;;;;;;5024948;28;20104;-78
2021/07/20 13:22:06;;;;;;;15.30;12.02;;;896.20;1766.40;;;;;;5027887;28;20540;-78
2021/07/20 13:24:59;;;;;;;14.60;10.60;;;845.50;1843.20;;;;;;5044034;28;20817;-78
2021/07/20 13:33:34;;;;;;;13.75;10.82;;;870.60;1817.60;;;;;;5041057;28;20395;-78
2021/07/20 13:36:19;;;;;;;15.30;10.93;;;845.60;1868.80;;;;;;5022680;28;20044;-77
2021/07/20 13:38:57;;;;;;;17.00;12.05;;;844.80;1945.60;;;;;;5028080;28;20106;-78
2021/07/20 13:42:00;;;;;;;13.98;11.27;;;870.40;1868.80;;;;;;5042033;28;20049;-77
2021/07/20 13:47:27;;;;;;;18.20;11.63;;;870.40;1817.60;;;;;;5041086;28;20845;-78
2021/07/20 13:50:01;;;;;;;15.82;11.93;;;844.80;1894.40;;;;;;5038086;28;20026;-77
2021/07/20 13:52:45;;;;;;;14.43;10.15;;;819.70;1945.60;;;;;;5034087;28;20124;-78
2021/07/20 13:58:21;;;;;;;15.57;10.30;;;870.40;1868.80;;;;;;5043166;28;20032;-78
2021/07/20 14:01:02;;;;;;;13.55;8.73;;;870.80;1817.60;;;;;;5035670;28;20033;-78
2021/07/20 14:03:50;;;;;;;15.57;10.38;;;845.10;1868.80;;;;;;5050523;28;20025;-77
2021/07/20 14:06:23;;;;;;;14.50;9.80;;;819.60;1945.60;;;;;;5036273;28;20025;-79
2021/07/20 14:12:14;;;;;;;11.32;9.35;;;845.20;1945.60;;;;;;5046415;28;20043;-81
2021/07/20 14:17:34;;;;;;;12.88;9.82;;;819.40;1996.80;;;;;;5048415;28;20543;-80
2021/07/20 14:20:21;;;;;;;15.35;10.32;;;793.80;2099.20;;;;;;5051294;28;20136;-79
2021/07/20 14:23:14;;;;;;;15.45;11.02;;;793.80;2124.80;;;;;;5044070;28;20038;-79
2021/07/20 14:32:35;;;;;;;16.10;9.70;;;844.90;1996.80;;;;;;5045760;28;21381;-80
2021/07/20 14:35:45;;;;;;;12.13;9.52;;;819.30;2022.40;;;;;;5038181;28;20033;-80
2021/07/20 14:38:55;;;;;;;17.50;10.43;;;793.80;2099.20;;;;;;5051705;28;20052;-80
2021/07/20 14:41:52;;;;;;;11.68;9.73;;;794.10;2099.20;;;;;;5023493;28;20041;-81
2021/07/20 14:44:17;;;;;;;11.50;10.10;;;793.60;2150.40;;;;;;5034758;28;20033;-80
2021/07/20 14:46:46;;;;;;;19.00;10.68;;;768.70;2176.00;;;;;;5026500;28;20030;-80
2021/07/20 14:49:44;;;;;;;12.13;9.95;;;768.70;2176.00;;;;;;5026383;28;20064;-80
2021/07/20 14:52:16;;;;;;;17.75;10.63;;;768.80;2176.00;;;;;;5033158;28;20446;-79
2021/07/20 14:55:14;;;;;;;13.05;9.40;;;768.90;2176.00;;;;;;5045510;28;20105;-81
2021/07/20 14:58:22;;;;;;;15.73;10.35;;;794.20;2124.80;;;;;;5040006;28;20109;-80
2021/07/20 15:00:57;;;;;;;15.50;11.25;;;793.80;2150.40;;;;;;4969138;28;20042;-81
2021/07/20 15:03:45;;;;;;;12.05;9.50;;;794.30;2124.80;;;;;;4952389;28;20030;-80
2021/07/20 15:06:20;;;;;;;13.70;9.68;;;819.50;2048.00;;;;;;4955207;28;20446;-80
2021/07/20 15:09:22;;;;;;;12.48;9.02;;;819.90;2022.40;;;;;;4954294;28;20118;-80
2021/07/20 15:14:59;;;;;;;12.10;9.93;;;794.30;2073.60;;;;;;4972444;28;20041;-79
2021/07/20 15:17:49;;;;;;;19.02;10.35;;;819.40;2048.00;;;;;;4957158;28;20038;-80
2021/07/20 15:20:21;;;;;;;14.60;10.20;;;819.70;1971.20;;;;;;4971651;28;20043;-80
2021/07/20 15:22:49;;;;;;;13.30;9.07;;;820.00;1971.20;;;;;;4960541;28;20391;-80
2021/07/20 15:25:17;;;;;;;16.23;10.57;;;819.90;1945.60;;;;;;4964074;28;20042;-78
2021/07/20 15:27:51;;;;;;;17.02;10.93;;;819.60;1971.20;;;;;;4972102;28;20061;-79
2021/07/20 15:30:54;;;;;;;16.90;11.38;;;794.50;2022.40;;;;;;4970655;28;20090;-78
2021/07/20 15:33:40;;;;;;;17.85;10.77;;;794.10;2073.60;;;;;;4951605;28;20044;-78
2021/07/20 15:36:22;;;;;;;14.95;11.52;;;794.00;2073.60;;;;;;4971415;28;20031;-78
2021/07/20 15:39:03;;;;;;;16.23;10.25;;;794.10;2048.00;;;;;;5030309;28;20385;-78
2021/07/20 15:41:29;;;;;;;14.57;10.45;;;794.50;1996.80;;;;;;5048740;28;20132;-79
2021/07/20 15:47:11;;;;;;;18.15;9.93;;;794.00;2073.60;;;;;;5043519;28;20040;-79